Time;durP1;ratioP1;P1;durP2;ratioP2;P2;SDS_P1;SDS_P2;PMS_P1;PMS_P2;Temp;Humidity;BMP_temperature;BMP_pressure;BME280_temperature;BME280_humidity;BME280_pressure;Samples;Min_cycle;Max_cycle;Signal;HPM_P1;HPM_P2
2023/12/17 00:00:46;;;;;;;14.30;7.55;;;9.40;99.90;;;;;;5059034;28;21290;-59
2023/12/17 00:03:12;;;;;;;16.65;7.65;;;9.40;99.90;;;;;;5061236;28;20047;-58
2023/12/17 00:05:38;;;;;;;12.38;8.00;;;9.40;99.90;;;;;;5058453;28;20036;-58
2023/12/17 00:08:04;;;;;;;18.92;7.68;;;9.40;99.90;;;;;;5062480;28;20040;-59
2023/12/17 00:10:29;;;;;;;14.48;7.43;;;9.40;99.90;;;;;;5043657;28;20052;-59
2023/12/17 00:12:55;;;;;;;16.65;7.35;;;9.40;99.90;;;;;;5060767;28;20040;-59
2023/12/17 00:15:21;;;;;;;20.50;8.18;;;9.40;99.90;;;;;;5057580;28;20566;-58
2023/12/17 00:17:47;;;;;;;16.15;7.45;;;9.40;99.90;;;;;;5056579;28;20036;-58
2023/12/17 00:20:13;;;;;;;15.63;7.32;;;9.40;99.90;;;;;;5059134;28;20066;-59
2023/12/17 00:22:39;;;;;;;17.38;7.72;;;9.40;99.90;;;;;;5066410;28;20052;-59
2023/12/17 00:25:05;;;;;;;19.15;8.02;;;9.40;99.90;;;;;;5078030;28;20083;-59
2023/12/17 00:27:31;;;;;;;15.57;8.13;;;9.40;99.90;;;;;;5060180;28;20047;-58
2023/12/17 00:29:57;;;;;;;16.85;7.25;;;9.40;99.90;;;;;;5080784;28;20101;-59
2023/12/17 00:32:22;;;;;;;16.95;7.70;;;9.40;99.90;;;;;;5078585;28;20550;-57
2023/12/17 00:34:48;;;;;;;14.60;7.88;;;9.40;99.90;;;;;;5079976;28;20049;-59
2023/12/17 00:37:14;;;;;;;15.25;7.57;;;9.40;99.90;;;;;;5076731;28;20432;-58
2023/12/17 00:39:40;;;;;;;14.43;7.25;;;9.40;99.90;;;;;;5081739;28;20408;-58
2023/12/17 00:42:06;;;;;;;12.50;7.20;;;9.40;99.90;;;;;;5080169;28;20062;-59
2023/12/17 00:44:31;;;;;;;20.08;7.40;;;9.40;99.90;;;;;;5081040;28;20040;-59
2023/12/17 00:46:57;;;;;;;15.13;7.97;;;9.40;99.90;;;;;;5079944;28;20453;-59
2023/12/17 00:49:23;;;;;;;14.25;7.55;;;9.40;99.90;;;;;;5078101;28;20146;-58
2023/12/17 00:51:48;;;;;;;12.48;7.18;;;9.40;99.90;;;;;;5078779;28;20139;-59
2023/12/17 00:54:14;;;;;;;13.45;7.13;;;9.40;99.90;;;;;;5082094;28;20039;-58
2023/12/17 00:56:40;;;;;;;22.33;6.95;;;9.40;99.90;;;;;;5080468;28;20047;-59
2023/12/17 00:59:05;;;;;;;16.95;7.07;;;9.40;99.90;;;;;;5082700;28;20044;-59
2023/12/17 01:01:31;;;;;;;13.38;7.88;;;9.40;99.90;;;;;;5077753;28;20048;-58
2023/12/17 01:03:57;;;;;;;16.60;7.22;;;9.40;99.90;;;;;;5079290;28;20167;-58
2023/12/17 01:06:22;;;;;;;16.42;7.25;;;9.40;99.90;;;;;;5079029;28;20035;-59
2023/12/17 01:08:48;;;;;;;16.58;7.90;;;9.40;99.90;;;;;;5077643;28;20496;-59
2023/12/17 01:11:14;;;;;;;15.02;7.10;;;9.40;99.90;;;;;;5060336;28;20485;-58
2023/12/17 01:13:39;;;;;;;13.93;6.63;;;9.40;99.90;;;;;;5083091;28;20138;-58
2023/12/17 01:16:05;;;;;;;15.85;7.00;;;9.40;99.90;;;;;;5079356;28;20039;-59
2023/12/17 01:18:32;;;;;;;14.00;7.10;;;9.50;99.90;;;;;;5078507;28;20039;-57
2023/12/17 01:21:00;;;;;;;16.40;7.63;;;9.40;99.90;;;;;;5066159;28;20039;-57
2023/12/17 01:23:25;;;;;;;12.60;6.68;;;9.40;99.90;;;;;;5080954;28;20048;-58
2023/12/17 01:25:51;;;;;;;16.85;7.90;;;9.50;99.90;;;;;;5059577;28;20104;-59
2023/12/17 01:28:17;;;;;;;18.67;7.22;;;9.40;99.90;;;;;;5079934;28;20040;-58
2023/12/17 01:30:43;;;;;;;17.20;7.18;;;9.50;99.90;;;;;;5066780;28;20119;-59
2023/12/17 01:33:09;;;;;;;23.92;7.47;;;9.50;99.90;;;;;;5081696;28;20530;-59
2023/12/17 01:35:34;;;;;;;22.13;7.82;;;9.50;99.90;;;;;;5064502;28;20522;-59
2023/12/17 01:38:00;;;;;;;15.27;7.38;;;9.40;99.90;;;;;;5083352;28;20151;-57
2023/12/17 01:40:26;;;;;;;15.07;6.80;;;9.50;99.90;;;;;;5086639;28;20043;-59
2023/12/17 01:42:52;;;;;;;16.90;7.18;;;9.50;99.90;;;;;;5081366;28;20035;-59
2023/12/17 01:45:18;;;;;;;15.82;6.95;;;9.50;99.90;;;;;;5079525;28;20063;-57
2023/12/17 01:47:45;;;;;;;19.17;6.95;;;9.50;99.90;;;;;;5082395;28;20063;-59
2023/12/17 01:50:11;;;;;;;15.52;7.38;;;9.50;99.90;;;;;;5065960;28;20063;-58
2023/12/17 01:52:38;;;;;;;19.92;7.68;;;9.50;99.90;;;;;;5077818;28;20055;-58
2023/12/17 01:55:06;;;;;;;13.95;7.32;;;9.40;99.90;;;;;;5081794;28;20040;-59
2023/12/17 01:57:32;;;;;;;14.77;7.32;;;9.50;99.90;;;;;;5077098;28;20093;-59
2023/12/17 01:59:58;;;;;;;15.43;6.75;;;9.50;99.90;;;;;;5064123;28;20036;-59
2023/12/17 02:02:24;;;;;;;17.60;7.55;;;9.50;99.90;;;;;;5031059;28;20474;-59
2023/12/17 02:04:50;;;;;;;13.30;7.30;;;9.50;99.90;;;;;;5082907;28;20101;-59
2023/12/17 02:07:16;;;;;;;13.90;6.68;;;9.50;99.90;;;;;;5081913;28;20906;-59
2023/12/17 02:09:42;;;;;;;16.75;6.90;;;9.50;99.90;;;;;;5082244;28;20048;-57
2023/12/17 02:12:22;;;;;;;15.35;7.05;;;9.50;99.90;;;;;;5057149;28;20036;-59
2023/12/17 02:14:48;;;;;;;15.63;6.75;;;9.50;99.90;;;;;;5063219;28;20032;-59
2023/12/17 02:17:13;;;;;;;17.48;7.22;;;9.50;99.90;;;;;;5083048;28;20562;-59
2023/12/17 02:19:39;;;;;;;13.55;7.38;;;9.50;99.90;;;;;;5085949;28;20259;-58
2023/12/17 02:22:05;;;;;;;14.50;6.78;;;9.50;99.90;;;;;;5084864;28;20044;-59
2023/12/17 02:24:33;;;;;;;12.63;6.82;;;9.50;99.90;;;;;;5059973;28;20399;-59
2023/12/17 02:26:58;;;;;;;13.57;6.70;;;9.50;99.90;;;;;;5080865;28;20044;-58
2023/12/17 02:29:24;;;;;;;11.13;6.97;;;9.50;99.90;;;;;;5079284;28;20043;-59
2023/12/17 02:31:50;;;;;;;10.63;6.70;;;9.50;99.90;;;;;;5084990;28;20062;-58
2023/12/17 02:34:17;;;;;;;10.52;6.80;;;9.50;99.90;;;;;;5066258;28;20052;-58
2023/12/17 02:36:42;;;;;;;13.13;6.80;;;9.50;99.90;;;;;;5064461;28;20048;-59
2023/12/17 02:39:08;;;;;;;10.18;6.65;;;9.50;99.90;;;;;;5085014;28;20086;-59
2023/12/17 02:41:34;;;;;;;15.20;6.57;;;9.50;99.90;;;;;;5077606;28;20358;-58
2023/12/17 02:43:59;;;;;;;15.75;6.65;;;9.50;99.90;;;;;;5081673;28;20481;-58
2023/12/17 02:46:25;;;;;;;16.45;6.80;;;9.50;99.90;;;;;;5045413;28;20094;-59
2023/12/17 02:48:51;;;;;;;14.00;6.03;;;9.50;99.90;;;;;;5061010;28;20042;-59
2023/12/17 02:51:16;;;;;;;17.50;6.65;;;9.50;99.90;;;;;;5066207;28;20079;-58
2023/12/17 02:53:42;;;;;;;11.07;6.15;;;9.50;99.90;;;;;;5081784;28;20040;-59
2023/12/17 02:56:08;;;;;;;15.98;6.53;;;9.50;99.90;;;;;;5058011;28;20039;-58
2023/12/17 02:58:34;;;;;;;17.55;6.90;;;9.50;99.90;;;;;;5080593;28;20036;-59
2023/12/17 03:00:59;;;;;;;13.85;6.03;;;9.60;99.90;;;;;;5078869;28;20044;-58
2023/12/17 03:03:25;;;;;;;15.75;7.10;;;9.60;99.90;;;;;;5083658;28;20043;-58
2023/12/17 03:05:51;;;;;;;14.18;6.47;;;9.60;99.90;;;;;;5063072;28;20047;-57
2023/12/17 03:08:17;;;;;;;8.93;5.70;;;9.50;99.90;;;;;;5082385;28;20048;-58
2023/12/17 03:10:43;;;;;;;11.45;6.00;;;9.50;99.90;;;;;;5077154;28;20044;-59
2023/12/17 03:13:09;;;;;;;12.68;6.00;;;9.50;99.90;;;;;;5056792;28;20036;-59
2023/12/17 03:15:34;;;;;;;15.38;6.18;;;9.60;99.90;;;;;;5082131;28;21147;-58
2023/12/17 03:18:00;;;;;;;11.05;6.30;;;9.50;99.90;;;;;;5082284;28;20126;-59
2023/12/17 03:20:26;;;;;;;13.63;6.32;;;9.50;99.90;;;;;;5050960;28;20383;-59
2023/12/17 03:22:51;;;;;;;11.70;6.82;;;9.50;99.90;;;;;;5084968;28;20098;-58
2023/12/17 03:25:17;;;;;;;16.63;6.68;;;9.50;99.90;;;;;;5081299;28;20052;-58
2023/12/17 03:27:43;;;;;;;13.52;6.22;;;9.50;99.90;;;;;;5081068;28;20138;-59
2023/12/17 03:30:09;;;;;;;11.50;5.97;;;9.40;99.90;;;;;;5078924;28;20078;-58
2023/12/17 03:32:35;;;;;;;15.48;6.47;;;9.50;99.90;;;;;;5054521;28;20483;-58
2023/12/17 03:35:01;;;;;;;12.30;6.13;;;9.50;99.90;;;;;;5076762;28;20052;-58
2023/12/17 03:37:26;;;;;;;11.68;5.88;;;9.50;99.90;;;;;;5081809;28;20069;-59
2023/12/17 03:39:52;;;;;;;14.68;6.53;;;9.50;99.90;;;;;;5062488;28;20044;-58
2023/12/17 03:42:18;;;;;;;15.57;6.40;;;9.50;99.90;;;;;;5058306;28;20044;-57
2023/12/17 03:44:46;;;;;;;14.40;6.07;;;9.50;99.90;;;;;;5079521;28;20042;-57
2023/12/17 03:47:11;;;;;;;12.60;6.13;;;9.50;99.90;;;;;;5062187;28;20047;-58
2023/12/17 03:49:37;;;;;;;15.13;6.20;;;9.50;99.90;;;;;;5078251;28;21061;-58
2023/12/17 03:52:06;;;;;;;13.13;6.03;;;9.50;99.90;;;;;;5064675;28;20047;-57
2023/12/17 03:54:31;;;;;;;16.17;6.40;;;9.50;99.90;;;;;;5065830;28;20153;-57
2023/12/17 03:56:58;;;;;;;12.63;6.25;;;9.50;99.90;;;;;;5066765;28;20047;-59
2023/12/17 03:59:23;;;;;;;13.80;6.78;;;9.50;99.90;;;;;;5066888;28;20465;-58
2023/12/17 04:01:49;;;;;;;15.68;6.47;;;9.50;99.90;;;;;;5060591;28;20136;-58
2023/12/17 04:04:15;;;;;;;14.48;6.88;;;9.50;99.90;;;;;;5081393;28;20489;-58
2023/12/17 04:06:42;;;;;;;12.05;6.75;;;9.50;99.90;;;;;;5082540;28;20112;-59
2023/12/17 04:09:08;;;;;;;14.23;6.60;;;9.50;99.90;;;;;;5063310;28;20055;-58
2023/12/17 04:11:34;;;;;;;16.30;6.68;;;9.50;99.90;;;;;;5083991;28;20119;-59
2023/12/17 04:14:01;;;;;;;14.93;7.20;;;9.50;99.90;;;;;;5081812;28;20367;-58
2023/12/17 04:16:26;;;;;;;14.40;7.05;;;9.50;99.90;;;;;;5075961;28;20475;-58
2023/12/17 04:18:52;;;;;;;16.50;7.35;;;9.50;99.90;;;;;;5079737;28;20042;-58
2023/12/17 04:21:18;;;;;;;14.35;6.70;;;9.50;99.90;;;;;;5066845;28;20452;-58
2023/12/17 04:23:44;;;;;;;15.93;7.68;;;9.50;99.90;;;;;;5082880;28;20376;-58
2023/12/17 04:26:11;;;;;;;18.23;7.72;;;9.50;99.90;;;;;;5076596;28;20047;-59
2023/12/17 04:28:37;;;;;;;16.15;7.07;;;9.50;99.90;;;;;;5073396;28;20047;-58
2023/12/17 04:31:03;;;;;;;11.77;7.18;;;9.50;99.90;;;;;;5078633;28;20398;-58
2023/12/17 04:33:29;;;;;;;18.52;6.95;;;9.50;99.90;;;;;;5076013;28;20048;-58
2023/12/17 04:35:54;;;;;;;12.60;7.13;;;9.50;99.90;;;;;;5075736;28;20040;-59
2023/12/17 04:38:21;;;;;;;16.52;7.25;;;9.40;99.90;;;;;;5042424;28;20044;-58
2023/12/17 04:40:46;;;;;;;14.35;7.00;;;9.50;99.90;;;;;;5059553;28;20055;-58
2023/12/17 04:43:12;;;;;;;11.70;7.03;;;9.50;99.90;;;;;;5043699;28;20044;-59
2023/12/17 04:45:38;;;;;;;14.43;7.00;;;9.50;99.90;;;;;;5066162;28;20079;-58
2023/12/17 04:48:04;;;;;;;20.95;7.80;;;9.40;99.90;;;;;;5061043;28;20044;-58
2023/12/17 04:50:31;;;;;;;12.45;7.18;;;9.50;99.90;;;;;;5076242;28;20042;-59
2023/12/17 04:52:57;;;;;;;22.95;7.50;;;9.50;99.90;;;;;;5064349;28;20047;-59
2023/12/17 04:55:23;;;;;;;13.52;7.32;;;9.50;99.90;;;;;;5088604;28;20506;-58
2023/12/17 04:57:49;;;;;;;17.88;7.80;;;9.40;99.90;;;;;;5084677;28;20052;-59
2023/12/17 05:00:15;;;;;;;21.67;8.75;;;9.40;99.90;;;;;;5061504;28;20044;-59
2023/12/17 05:02:40;;;;;;;18.05;7.95;;;9.40;99.90;;;;;;5061602;28;20040;-59
2023/12/17 05:05:06;;;;;;;19.65;9.20;;;9.40;99.90;;;;;;5041895;28;20071;-59
2023/12/17 05:07:32;;;;;;;13.85;8.02;;;9.50;99.90;;;;;;5085338;28;20414;-58
2023/12/17 05:09:58;;;;;;;18.67;8.73;;;9.40;99.90;;;;;;5062925;28;20036;-58
2023/12/17 05:12:24;;;;;;;17.98;8.68;;;9.40;99.90;;;;;;5065144;28;20094;-59
2023/12/17 05:14:50;;;;;;;19.67;9.00;;;9.40;99.90;;;;;;5085014;28;20042;-59
2023/12/17 05:17:15;;;;;;;16.02;8.43;;;9.40;99.90;;;;;;5072622;28;20638;-58
2023/12/17 05:19:41;;;;;;;15.50;7.75;;;9.40;99.90;;;;;;5080008;28;20036;-58
2023/12/17 05:22:07;;;;;;;16.65;8.38;;;9.40;99.90;;;;;;5081788;28;20767;-58
2023/12/17 05:24:32;;;;;;;25.88;8.18;;;9.40;99.90;;;;;;5067437;28;20105;-58
2023/12/17 05:26:58;;;;;;;15.95;8.00;;;9.40;99.90;;;;;;5084616;28;20036;-58
2023/12/17 05:29:24;;;;;;;17.38;8.07;;;9.40;99.90;;;;;;5085225;28;20032;-59
2023/12/17 05:31:49;;;;;;;14.10;7.35;;;9.40;99.90;;;;;;5052295;28;20080;-59
2023/12/17 05:34:16;;;;;;;21.25;8.80;;;9.40;99.90;;;;;;5074265;28;20050;-58
2023/12/17 05:36:42;;;;;;;16.92;8.18;;;9.30;99.90;;;;;;5068353;28;20139;-58
2023/12/17 05:39:08;;;;;;;13.95;8.13;;;9.30;99.90;;;;;;5084047;28;20092;-58
2023/12/17 05:41:34;;;;;;;15.93;8.20;;;9.40;99.90;;;;;;5061298;28;20036;-57
2023/12/17 05:43:59;;;;;;;17.20;8.55;;;9.30;99.90;;;;;;5080305;28;20044;-59
2023/12/17 05:46:26;;;;;;;20.77;8.90;;;9.30;99.90;;;;;;5084736;28;20504;-59
2023/12/17 05:48:52;;;;;;;19.48;10.02;;;9.30;99.90;;;;;;5078857;28;20044;-58
2023/12/17 05:51:19;;;;;;;18.65;9.50;;;9.30;99.90;;;;;;5081490;28;20996;-58
2023/12/17 05:53:45;;;;;;;20.98;8.23;;;9.30;99.90;;;;;;5077986;28;20048;-57
2023/12/17 05:56:11;;;;;;;19.80;8.73;;;9.30;99.90;;;;;;5085104;28;20051;-58
2023/12/17 05:58:37;;;;;;;20.85;8.52;;;9.30;99.90;;;;;;5080691;28;20118;-58
2023/12/17 06:01:03;;;;;;;18.25;8.75;;;9.20;99.90;;;;;;5063260;28;20040;-59
2023/12/17 06:03:30;;;;;;;16.98;8.55;;;9.20;99.90;;;;;;5061263;28;20578;-58
2023/12/17 06:05:56;;;;;;;17.40;7.95;;;9.20;99.90;;;;;;5078423;28;20040;-58
2023/12/17 06:08:21;;;;;;;13.25;8.13;;;9.30;99.90;;;;;;5077220;28;20043;-58
2023/12/17 06:10:47;;;;;;;19.98;8.10;;;9.20;99.90;;;;;;5082289;28;20465;-58
2023/12/17 06:13:13;;;;;;;18.05;8.02;;;9.20;99.90;;;;;;5082986;28;20048;-59
2023/12/17 06:15:39;;;;;;;15.10;7.60;;;9.20;99.90;;;;;;5083380;28;20922;-59
2023/12/17 06:18:05;;;;;;;17.45;7.65;;;9.20;99.90;;;;;;5082905;28;20039;-59
2023/12/17 06:20:30;;;;;;;16.48;7.90;;;9.20;99.90;;;;;;5062222;28;20048;-59
2023/12/17 06:22:56;;;;;;;19.52;8.50;;;9.20;99.90;;;;;;5080627;28;20105;-58
2023/12/17 06:25:22;;;;;;;19.73;8.98;;;9.20;99.90;;;;;;5084616;28;20146;-58
2023/12/17 06:27:52;;;;;;;14.60;8.00;;;9.20;99.90;;;;;;5083053;28;20062;-58
2023/12/17 06:30:18;;;;;;;18.13;7.90;;;9.20;99.90;;;;;;5079136;28;20046;-58
2023/12/17 06:32:45;;;;;;;16.85;8.93;;;9.20;99.90;;;;;;5064155;28;20466;-59
2023/12/17 06:35:11;;;;;;;17.10;9.73;;;9.20;99.90;;;;;;5058002;28;20581;-57
2023/12/17 06:37:36;;;;;;;18.83;9.68;;;9.20;99.90;;;;;;5047080;28;20055;-58
2023/12/17 06:40:02;;;;;;;18.50;10.02;;;9.20;99.90;;;;;;5082890;28;20096;-58
2023/12/17 06:42:28;;;;;;;23.27;10.75;;;9.20;99.90;;;;;;5083802;28;20498;-58
2023/12/17 06:44:54;;;;;;;18.65;10.25;;;9.20;99.90;;;;;;5064874;28;20031;-59
2023/12/17 06:47:20;;;;;;;18.10;10.27;;;9.20;99.90;;;;;;5083155;28;20453;-58
2023/12/17 06:49:46;;;;;;;19.10;11.20;;;9.20;99.90;;;;;;5081137;28;20486;-58
2023/12/17 06:52:12;;;;;;;24.45;11.45;;;9.20;99.90;;;;;;5081236;28;20165;-58
2023/12/17 06:54:38;;;;;;;24.17;10.75;;;9.20;99.90;;;;;;5078661;28;20040;-58
2023/12/17 06:57:04;;;;;;;21.38;10.95;;;9.20;99.90;;;;;;5084969;28;20032;-58
2023/12/17 06:59:29;;;;;;;19.42;11.30;;;9.20;99.90;;;;;;5064760;28;20048;-58
2023/12/17 07:01:55;;;;;;;20.88;12.00;;;9.10;99.90;;;;;;5051526;28;20410;-59
2023/12/17 07:04:21;;;;;;;21.95;11.85;;;9.10;99.90;;;;;;5086345;28;20167;-59
2023/12/17 07:06:46;;;;;;;21.05;12.13;;;9.10;99.90;;;;;;5067915;28;20114;-58
2023/12/17 07:09:13;;;;;;;23.33;11.55;;;9.10;99.90;;;;;;5086392;28;20044;-58
2023/12/17 07:11:39;;;;;;;21.08;11.82;;;9.10;99.90;;;;;;5067128;28;20053;-59
2023/12/17 07:14:05;;;;;;;21.92;10.23;;;9.10;99.90;;;;;;5082534;28;20047;-58
2023/12/17 07:16:31;;;;;;;21.30;9.90;;;9.10;99.90;;;;;;5060117;28;20093;-57
2023/12/17 07:18:56;;;;;;;24.20;9.55;;;9.10;99.90;;;;;;5062565;28;20036;-59
2023/12/17 07:21:22;;;;;;;19.55;8.05;;;9.10;99.90;;;;;;5072877;28;20040;-58
2023/12/17 07:23:48;;;;;;;19.90;9.02;;;9.10;99.90;;;;;;5080791;28;20429;-59
2023/12/17 07:26:14;;;;;;;19.20;9.30;;;9.10;99.90;;;;;;5081396;28;20794;-59
2023/12/17 07:28:40;;;;;;;17.20;8.50;;;9.10;99.90;;;;;;5083444;28;20052;-59
2023/12/17 07:31:05;;;;;;;21.23;8.63;;;9.10;99.90;;;;;;5069241;28;20062;-58
2023/12/17 07:33:31;;;;;;;32.95;9.20;;;9.10;99.90;;;;;;5078531;28;20047;-59
2023/12/17 07:35:57;;;;;;;22.80;8.85;;;9.10;99.90;;;;;;5081668;28;20092;-59
2023/12/17 07:38:23;;;;;;;19.00;9.40;;;9.10;99.90;;;;;;5079294;28;20075;-58
2023/12/17 07:40:48;;;;;;;23.23;9.55;;;9.20;99.90;;;;;;5053136;28;20043;-59
2023/12/17 07:43:14;;;;;;;22.42;9.23;;;9.10;99.90;;;;;;5080541;28;20439;-59
2023/12/17 07:45:40;;;;;;;20.48;8.32;;;9.10;99.90;;;;;;5050924;28;20042;-58
2023/12/17 07:48:07;;;;;;;21.40;9.07;;;9.10;99.90;;;;;;5075607;28;20123;-58
2023/12/17 07:50:32;;;;;;;21.00;9.30;;;9.20;99.90;;;;;;5079686;28;20489;-59
2023/12/17 07:52:58;;;;;;;21.67;9.38;;;9.10;99.90;;;;;;5049009;28;20051;-59
2023/12/17 07:55:24;;;;;;;15.52;7.97;;;9.10;99.90;;;;;;5041944;28;20036;-58
2023/12/17 07:57:50;;;;;;;24.40;9.95;;;9.10;99.90;;;;;;5060949;28;20359;-59
2023/12/17 08:00:16;;;;;;;20.42;8.88;;;9.10;99.90;;;;;;5072989;28;20050;-59
2023/12/17 08:02:41;;;;;;;18.75;9.25;;;9.10;99.90;;;;;;5076536;28;20085;-58
2023/12/17 08:05:08;;;;;;;24.35;10.02;;;9.10;99.90;;;;;;5046833;28;20043;-58
2023/12/17 08:07:35;;;;;;;19.67;10.27;;;9.10;99.90;;;;;;5076430;28;20036;-58
2023/12/17 08:10:02;;;;;;;22.83;9.45;;;9.10;99.90;;;;;;5084496;28;20462;-59
2023/12/17 08:12:28;;;;;;;23.33;9.30;;;9.10;99.90;;;;;;5083463;28;20050;-58
2023/12/17 08:14:53;;;;;;;23.38;9.40;;;9.10;99.90;;;;;;5083707;28;20079;-59
2023/12/17 08:17:19;;;;;;;25.30;9.77;;;9.10;99.90;;;;;;5042254;28;20123;-59
2023/12/17 08:19:45;;;;;;;22.83;8.52;;;9.10;99.90;;;;;;5061679;28;20573;-59
2023/12/17 08:22:10;;;;;;;21.02;8.02;;;9.10;99.90;;;;;;5063243;28;20040;-58
2023/12/17 08:24:36;;;;;;;17.23;7.80;;;9.10;99.90;;;;;;5071540;28;20410;-59
2023/12/17 08:27:02;;;;;;;19.15;8.30;;;9.00;99.90;;;;;;5054759;28;20745;-58
2023/12/17 08:29:29;;;;;;;20.40;8.32;;;9.00;99.90;;;;;;5051407;28;20044;-58
2023/12/17 08:31:55;;;;;;;17.88;7.97;;;9.00;99.90;;;;;;5071691;28;20048;-59
2023/12/17 08:34:24;;;;;;;15.07;8.50;;;9.00;99.90;;;;;;5079062;28;20090;-58
2023/12/17 08:36:51;;;;;;;25.13;8.32;;;9.00;99.90;;;;;;5057844;28;20065;-59
2023/12/17 08:39:17;;;;;;;16.27;8.40;;;9.00;99.90;;;;;;5079771;28;20044;-59
2023/12/17 08:41:42;;;;;;;20.05;8.52;;;9.00;99.90;;;;;;5060267;28;20117;-58
2023/12/17 08:44:08;;;;;;;19.30;9.10;;;9.00;99.90;;;;;;5077774;28;20561;-59
2023/12/17 08:46:34;;;;;;;20.25;9.80;;;8.90;99.90;;;;;;5075827;28;20036;-59
2023/12/17 08:49:01;;;;;;;20.48;9.70;;;9.00;99.90;;;;;;5062788;28;20482;-58
2023/12/17 08:51:27;;;;;;;23.15;10.30;;;9.00;99.90;;;;;;5078040;28;20089;-58
2023/12/17 08:53:52;;;;;;;25.60;10.95;;;9.00;99.90;;;;;;5078783;28;20052;-58
2023/12/17 08:56:18;;;;;;;20.23;10.82;;;9.00;99.90;;;;;;5077301;28;20894;-58
2023/12/17 08:58:44;;;;;;;27.15;11.35;;;9.00;99.90;;;;;;5060168;28;20036;-59
2023/12/17 09:01:10;;;;;;;19.25;10.70;;;9.00;99.90;;;;;;5065406;28;20088;-56
2023/12/17 09:03:36;;;;;;;21.60;11.20;;;9.00;99.90;;;;;;5058893;28;20040;-58
2023/12/17 09:06:02;;;;;;;23.08;12.48;;;9.00;99.90;;;;;;5062933;28;20078;-59
2023/12/17 09:08:27;;;;;;;26.25;12.63;;;9.00;99.90;;;;;;5063959;28;20086;-58
2023/12/17 09:10:53;;;;;;;24.00;12.27;;;9.10;99.90;;;;;;5062004;28;20535;-58
2023/12/17 09:13:19;;;;;;;27.33;13.23;;;9.10;99.90;;;;;;5084185;28;20520;-58
2023/12/17 09:15:44;;;;;;;27.08;13.23;;;9.10;99.90;;;;;;5081972;28;20036;-58
2023/12/17 09:18:10;;;;;;;25.98;13.13;;;9.10;99.90;;;;;;5082127;28;20410;-58
2023/12/17 09:20:36;;;;;;;29.50;13.90;;;9.10;99.90;;;;;;5064155;28;20059;-58
2023/12/17 09:23:02;;;;;;;30.60;13.98;;;9.10;99.90;;;;;;5042549;28;20064;-59
2023/12/17 09:25:28;;;;;;;25.15;12.98;;;9.10;99.90;;;;;;5052853;28;20085;-59
2023/12/17 09:27:54;;;;;;;30.88;13.55;;;9.10;99.90;;;;;;5055366;28;20044;-57
2023/12/17 09:30:20;;;;;;;40.00;14.55;;;9.10;99.90;;;;;;5070974;28;20083;-59
2023/12/17 09:32:46;;;;;;;34.53;14.57;;;9.10;99.90;;;;;;5050689;28;20487;-58
2023/12/17 09:35:11;;;;;;;43.40;14.93;;;9.20;99.90;;;;;;5069483;28;20035;-59
2023/12/17 09:37:38;;;;;;;31.58;13.05;;;9.20;99.90;;;;;;5071135;28;20115;-58
2023/12/17 09:40:05;;;;;;;31.08;13.25;;;9.20;99.90;;;;;;5080577;28;20638;-58
2023/12/17 09:42:31;;;;;;;21.88;11.85;;;9.20;99.90;;;;;;5059636;28;20118;-59
2023/12/17 09:44:57;;;;;;;30.40;12.55;;;9.20;99.90;;;;;;5076244;28;20478;-58
2023/12/17 09:47:23;;;;;;;29.77;12.02;;;9.20;99.90;;;;;;5082042;28;20043;-58
2023/12/17 09:49:49;;;;;;;32.40;12.23;;;9.20;99.90;;;;;;5076532;28;20043;-59
2023/12/17 09:52:18;;;;;;;35.05;12.13;;;9.30;99.90;;;;;;5082760;28;20054;-58
2023/12/17 09:54:48;;;;;;;34.53;11.85;;;9.30;99.90;;;;;;5058289;28;28795;-59
2023/12/17 09:57:16;;;;;;;30.08;11.73;;;9.30;99.90;;;;;;5080120;28;20048;-59
2023/12/17 09:59:44;;;;;;;35.17;12.02;;;9.30;99.90;;;;;;5079929;28;20048;-59
2023/12/17 10:02:16;;;;;;;32.08;11.50;;;9.30;99.90;;;;;;5060000;28;20043;-58
2023/12/17 10:04:42;;;;;;;23.65;10.50;;;9.40;99.90;;;;;;5041479;28;20047;-58
2023/12/17 10:07:07;;;;;;;29.50;10.80;;;9.40;99.90;;;;;;5062789;28;20079;-59
2023/12/17 10:09:35;;;;;;;27.15;11.52;;;9.40;99.90;;;;;;5068037;28;20490;-59
2023/12/17 10:12:05;;;;;;;30.55;11.02;;;9.40;99.90;;;;;;5072198;28;20052;-59
2023/12/17 10:14:31;;;;;;;26.83;10.80;;;9.40;99.90;;;;;;5076407;28;20108;-57
2023/12/17 10:16:57;;;;;;;31.98;10.43;;;9.40;99.90;;;;;;5072098;28;20051;-58
2023/12/17 10:19:24;;;;;;;29.95;10.07;;;9.40;99.90;;;;;;5073985;28;20055;-58
2023/12/17 10:21:49;;;;;;;29.42;11.73;;;9.40;99.90;;;;;;5054176;28;20086;-58
2023/12/17 10:24:15;;;;;;;33.47;11.20;;;9.40;99.90;;;;;;5049401;28;20503;-58
2023/12/17 10:26:45;;;;;;;26.90;10.50;;;9.40;99.90;;;;;;5077934;28;20044;-59
2023/12/17 10:29:16;;;;;;;27.42;10.25;;;9.40;99.90;;;;;;5081755;28;20145;-59
2023/12/17 10:31:43;;;;;;;24.30;11.38;;;9.50;99.90;;;;;;5066527;28;20611;-59
2023/12/17 10:34:19;;;;;;;25.48;10.52;;;9.50;99.90;;;;;;5081795;28;20044;-59
2023/12/17 10:36:47;;;;;;;31.75;11.50;;;9.40;99.90;;;;;;5075624;28;20052;-59
2023/12/17 10:39:15;;;;;;;28.98;11.45;;;9.40;99.90;;;;;;5076169;28;20562;-58
2023/12/17 10:41:41;;;;;;;26.55;12.15;;;9.50;99.90;;;;;;5068445;28;20055;-58
2023/12/17 10:44:14;;;;;;;26.17;12.18;;;9.40;99.90;;;;;;5063993;28;20036;-59
2023/12/17 10:46:44;;;;;;;27.95;12.80;;;9.50;99.90;;;;;;5066948;28;20118;-59
2023/12/17 10:49:11;;;;;;;25.70;12.27;;;9.40;99.90;;;;;;5080436;28;20051;-57
2023/12/17 10:51:39;;;;;;;34.97;15.07;;;9.50;99.90;;;;;;5061142;28;20096;-58
2023/12/17 10:54:06;;;;;;;33.17;15.95;;;9.50;99.90;;;;;;5079049;28;20113;-58
2023/12/17 10:56:39;;;;;;;37.47;17.35;;;9.50;99.90;;;;;;5078757;28;20043;-58
2023/12/17 10:59:17;;;;;;;;;;;9.50;99.90;;;;;;5045055;28;20051;-59
2023/12/17 11:01:44;;;;;;;;;;;9.50;99.90;;;;;;5048992;28;19936;-58
2023/12/17 11:04:09;;;;;;;;;;;9.50;99.90;;;;;;5073915;28;20033;-59
2023/12/17 11:06:35;;;;;;;;;;;9.50;99.90;;;;;;5080564;28;20000;-58
2023/12/17 11:09:01;;;;;;;;;;;9.50;99.90;;;;;;5061570;28;19923;-57
2023/12/17 11:11:31;;;;;;;;;;;9.50;99.90;;;;;;5062503;28;20579;-55
2023/12/17 11:13:56;;;;;;;;;;;9.50;99.90;;;;;;5060988;28;19931;-57
2023/12/17 11:16:24;;;;;;;;;;;9.50;99.90;;;;;;5071282;28;19919;-57
2023/12/17 11:18:53;;;;;;;;;;;9.50;99.90;;;;;;5075976;28;19926;-58
2023/12/17 11:21:19;;;;;;;;;;;9.50;99.90;;;;;;5060049;28;19939;-53
2023/12/17 11:23:47;;;;;;;;;;;9.50;99.90;;;;;;5077483;28;20932;-58
2023/12/17 11:26:17;;;;;;;;;;;9.50;99.90;;;;;;5075778;28;19930;-58
2023/12/17 11:28:44;;;;;;;;;;;9.60;99.90;;;;;;5076945;28;19931;-57
2023/12/17 11:31:13;;;;;;;;;;;9.60;99.90;;;;;;5071203;28;19930;-57
2023/12/17 11:33:39;;;;;;;;;;;9.60;99.90;;;;;;5064926;28;19920;-56
2023/12/17 11:36:06;;;;;;;;;;;9.70;99.90;;;;;;5071763;28;19931;-56
2023/12/17 11:38:32;;;;;;;;;;;9.60;99.90;;;;;;5078314;28;19925;-58
2023/12/17 11:40:57;;;;;;;;;;;9.70;99.90;;;;;;5083270;28;19924;-57
2023/12/17 11:43:25;;;;;;;;;;;9.70;99.90;;;;;;5082411;28;19967;-57
2023/12/17 11:45:51;;;;;;;;;;;9.70;99.90;;;;;;5082924;28;19919;-57
2023/12/17 11:48:18;;;;;;;;;;;9.70;99.90;;;;;;5079217;28;20293;-57
2023/12/17 11:50:56;;;;;;;;;;;9.70;99.90;;;;;;5081048;28;19916;-57
2023/12/17 11:53:26;;;;;;;;;;;9.70;99.90;;;;;;5080763;28;19926;-57
2023/12/17 11:55:52;;;;;;;;;;;9.70;99.90;;;;;;5082891;28;19954;-57
2023/12/17 11:58:19;;;;;;;;;;;9.80;99.90;;;;;;5082091;28;19932;-57
2023/12/17 12:01:08;;;;;;;;;;;9.80;99.90;;;;;;5085517;28;20362;-59
2023/12/17 12:03:34;;;;;;;;;;;9.80;99.90;;;;;;5081736;28;19981;-58
2023/12/17 12:06:06;;;;;;;;;;;9.80;99.90;;;;;;5066717;28;19932;-58
2023/12/17 12:08:42;;;;;;;;;;;9.80;99.90;;;;;;5062119;28;20392;-57
2023/12/17 12:11:12;;;;;;;;;;;9.80;99.90;;;;;;5075620;28;19981;-55
2023/12/17 12:13:40;;;;;;;;;;;9.80;99.90;;;;;;5069759;28;20752;-55
2023/12/17 12:16:10;;;;;;;;;;;9.80;99.90;;;;;;5050715;28;19915;-55
2023/12/17 12:18:35;;;;;;;;;;;9.80;99.90;;;;;;5063068;28;20296;-58
2023/12/17 12:21:02;;;;;;;;;;;9.80;99.90;;;;;;5048481;28;20000;-57
2023/12/17 12:23:28;;;;;;;;;;;9.80;99.90;;;;;;5070883;28;19927;-59
2023/12/17 12:25:58;;;;;;;;;;;9.80;99.90;;;;;;5052211;28;19951;-56
2023/12/17 12:28:24;;;;;;;;;;;9.80;99.90;;;;;;5053457;28;20472;-58
2023/12/17 12:30:50;;;;;;;;;;;9.80;99.90;;;;;;5051002;28;20028;-57
2023/12/17 12:33:18;;;;;;;;;;;9.80;99.90;;;;;;5055414;28;19920;-58
2023/12/17 12:35:48;;;;;;;;;;;9.80;99.90;;;;;;5079020;28;20656;-57
2023/12/17 12:38:17;;;;;;;;;;;9.80;99.90;;;;;;5084088;28;19966;-58
2023/12/17 12:40:42;;;;;;;;;;;9.80;99.90;;;;;;5063781;28;20374;-56
2023/12/17 12:43:08;;;;;;;;;;;9.80;99.90;;;;;;5084316;28;20415;-57
2023/12/17 12:45:34;;;;;;;;;;;9.80;99.90;;;;;;5084137;28;20377;-57
2023/12/17 12:47:59;;;;;;;;;;;9.80;99.90;;;;;;5050393;28;19927;-56
2023/12/17 12:50:25;;;;;;;;;;;9.80;99.90;;;;;;5085126;28;20010;-56
2023/12/17 12:52:51;;;;;;;;;;;9.80;99.90;;;;;;5085596;28;20461;-56